Latest Weather Observations for Fitzroy Crossing

IDW60801

Issued at 1:32 pm WST Sunday 30 August 2015 (issued every 30 minutes, with the page automatically refreshed every 10 minutes)

About weather observations | Map of weather stations | Latest weather observations for WA | Other Formats
Station Details ID: 003093 Name: FITZROY CROSSING AERO Lat: -18.18 Lon: 125.56 Height: 114.5 m
Data from the previous 72 hours. | See also: Recent months at Fitzroy Crossing
Date/Time
WST
Temp
°C
App
Temp
°C
Dew
Point
Rel
Hum
%
Delta-T
°C
Wind Press
QNH
hPa
Press
MSL
hPa
Rain
since 9 am
mm
Dir
 
Spd
km/h
Gust
km/h
Spd
kts
Gust
kts
30/01:30pm 34.2 32.5 12.5 27 13.0 SW 13 30 7 16 1014.0 1013.5 0.0
30/01:00pm 33.7 32.3 12.1 27 12.9 WSW 11 20 6 11 1014.4 1013.9 0.0
30/12:30pm 32.7 31.7 12.3 28 12.2 SW 9 17 5 9 1014.9 1014.4 0.0
30/12:00pm 32.3 31.4 12.5 30 11.8 W 9 17 5 9 1015.4 1014.9 0.0
30/11:30am 31.9 30.3 12.7 31 11.5 SSW 13 20 7 11 1016.0 1015.5 0.0
30/11:00am 31.1 29.9 12.9 32 10.9 SW 11 20 6 11 1016.7 1016.2 0.0
30/10:30am 31.1 30.2 13.8 34 10.5 SW 11 19 6 10 1017.5 1017.0 0.0
30/10:00am 29.6 29.0 13.4 37 9.7 SSW 9 17 5 9 1018.0 1017.5 0.0
30/09:30am 29.3 29.2 13.9 39 9.3 SSW 7 13 4 7 1018.2 1017.7 0.0
30/09:00am 27.7 27.3 14.0 43 8.2 WSW 9 17 5 9 1018.1 1017.6 0.0
30/08:30am 27.0 25.2 14.4 46 7.6 SW 17 20 9 11 1017.9 1017.4 0.0
30/08:00am 26.1 24.2 14.2 48 7.1 WSW 17 20 9 11 1017.8 1017.3 0.0
30/07:30am 24.9 24.3 14.7 53 6.1 W 11 19 6 10 1017.4 1016.9 0.0
30/07:00am 23.8 22.6 15.0 57 5.3 W 15 20 8 11 1017.1 1016.6 0.0
30/06:30am 21.5 21.6 14.4 64 4.2 WNW 7 9 4 5 1016.6 1016.1 0.0
30/06:00am 20.8 20.8 14.2 66 3.9 NW 7 11 4 6 1016.2 1015.7 0.0
30/05:30am 21.1 20.3 14.0 64 4.1 WNW 11 13 6 7 1015.6 1015.1 0.0
30/05:00am 21.9 20.3 14.0 61 4.6 WNW 15 19 8 10 1015.4 1014.9 0.0
30/04:30am 22.6 20.3 14.2 59 4.9 WNW 19 24 10 13 1014.9 1014.4 0.0
30/04:00am 22.3 21.0 13.6 58 5.1 NW 13 17 7 9 1014.8 1014.3 0.0
30/03:30am 22.9 20.3 13.7 56 5.4 N 20 26 11 14 1014.6 1014.1 0.0
30/03:00am 23.1 21.4 13.6 55 5.5 W 15 19 8 10 1014.1 1013.6 0.0
30/02:30am 23.0 20.8 13.2 54 5.7 W 17 20 9 11 1014.1 1013.6 0.0
30/02:00am 23.1 22.2 11.5 48 6.5 NW 7 11 4 6 1014.5 1014.0 0.0
30/01:30am 24.5 24.1 12.5 47 6.9 WNW 6 9 3 5 1014.7 1014.2 0.0
30/01:00am 24.5 23.6 11.5 44 7.4 NE 7 11 4 6 1014.7 1014.2 0.0
30/12:30am 22.9 20.9 10.0 44 7.1 E 11 20 6 11 1014.7 1014.2 0.0
30/12:00am 22.4 20.5 8.9 42 7.2 NW 9 15 5 8 1014.6 1014.1 0.0
 
Date/Time
WST
Temp
°C
App
Temp
°C
Dew
Point
Rel
Hum
%
Delta-T
°C
Wind Press
QNH
hPa
Press
MSL
hPa
Rain
since 9 am
mm
Dir
 
Spd
km/h
Gust
km/h
Spd
kts
Gust
kts
29/11:30pm 25.0 23.9 10.1 39 8.3 N 6 9 3 5 1014.5 1014.0 0.0
29/11:00pm 25.0 25.1 10.1 39 8.3 CALM 0 0 0 0 1014.6 1014.1 0.0
29/10:30pm 24.8 24.8 9.9 39 8.2 CALM 0 0 0 0 1014.7 1014.2 0.0
29/10:00pm 25.1 23.7 9.4 37 8.6 NE 7 9 4 5 1014.8 1014.3 0.0
29/09:30pm 25.2 22.9 9.1 36 8.8 NNW 11 13 6 7 1014.8 1014.3 0.0
29/09:00pm 27.5 26.3 10.2 34 9.7 SSW 7 9 4 5 1014.7 1014.2 0.0
29/08:30pm 28.1 26.7 10.8 34 9.9 SSW 9 11 5 6 1014.7 1014.2 0.0
29/08:00pm 27.0 25.8 10.2 35 9.4 SSE 7 9 4 5 1014.4 1013.9 0.0
29/07:30pm 28.2 27.2 10.4 33 10.1 SSW 6 7 3 4 1014.1 1013.6 0.0
29/07:00pm 28.5 28.5 9.7 31 10.5 CALM 0 0 0 0 1013.6 1013.2 0.0
29/06:30pm 29.4 29.5 10.0 30 11.0 CALM 0 0 0 0 1013.3 1012.9 0.0
29/06:00pm 30.1 29.7 9.6 28 11.6 NNW 2 6 1 3 1013.0 1012.6 0.0
29/05:30pm 31.1 29.3 9.3 26 12.3 NW 9 9 5 5 1012.8 1012.4 0.0
29/05:00pm 32.8 31.4 9.6 24 13.3 NNW 7 9 4 5 1012.5 1012.1 0.0
29/04:30pm 34.4 32.6 9.6 22 14.3 NW 9 17 5 9 1012.2 1011.8 0.0
29/04:00pm 35.4 34.6 9.7 21 14.9 SW 4 9 2 5 1012.1 1011.7 0.0
29/03:30pm 34.6 33.7 9.1 21 14.6 N 4 11 2 6 1012.1 1011.7 0.0
29/03:00pm 34.7 32.3 9.9 22 14.4 N 13 20 7 11 1012.3 1011.9 0.0
29/02:30pm 34.9 34.2 10.0 22 14.5 ENE 4 13 2 7 1012.5 1012.1 0.0
29/02:00pm 33.9 32.2 9.9 23 13.9 SE 9 15 5 8 1012.9 1012.5 0.0
29/01:30pm 34.4 33.4 10.9 24 13.8 N 7 13 4 7 1013.3 1012.9 0.0
29/01:00pm 34.3 33.0 11.4 25 13.5 SE 9 15 5 8 1014.0 1013.5 0.0
29/12:30pm 33.6 32.1 12.0 27 12.9 ESE 11 15 6 8 1014.6 1014.1 0.0
29/12:00pm 33.5 32.4 11.9 27 12.8 E 9 26 5 14 1015.1 1014.6 0.0
29/11:30am 32.5 31.3 12.7 30 11.9 N 11 19 6 10 1015.7 1015.2 0.0
29/11:00am 31.9 31.4 12.7 31 11.5 NE 7 15 4 8 1016.2 1015.7 0.0
29/10:30am 31.2 30.1 13.0 33 10.9 NNE 11 15 6 8 1016.9 1016.4 0.0
29/10:00am 30.3 29.7 13.6 36 10.0 ENE 9 13 5 7 1017.3 1016.8 0.0
29/09:30am 29.1 28.6 13.7 38 9.2 NNE 9 15 5 8 1017.6 1017.1 0.0
29/09:00am 27.5 27.5 14.2 44 8.0 N 7 15 4 8 1017.6 1017.1 0.0
29/08:30am 26.4 26.5 14.5 48 7.2 NE 7 13 4 7 1017.6 1017.1 0.0
29/08:00am 25.3 26.6 14.1 50 6.6 CALM 0 0 0 0 1017.4 1016.9 0.0
29/07:30am 23.7 23.7 14.1 55 5.7 E 7 9 4 5 1017.2 1016.7 0.0
29/07:00am 21.7 23.1 14.4 63 4.3 CALM 0 0 0 0 1016.9 1016.4 0.0
29/06:30am 19.4 18.9 11.9 62 4.2 W 6 7 3 4 1016.5 1016.0 0.0
29/06:00am 18.5 17.9 11.8 65 3.7 WNW 6 7 3 4 1016.2 1015.7 0.0
29/05:30am 18.2 17.2 11.0 63 3.9 NW 7 9 4 5 1016.0 1015.5 0.0
29/05:00am 18.0 16.5 10.4 61 4.1 NW 9 9 5 5 1015.7 1015.2 0.0
29/04:30am 19.1 18.9 10.6 58 4.6 SW 2 7 1 4 1015.5 1015.0 0.0
29/04:00am 20.7 20.3 12.9 61 4.4 SSW 7 9 4 5 1015.4 1014.9 0.0
29/03:30am 21.0 20.5 11.9 56 5.1 SSW 6 7 3 4 1015.2 1014.7 0.0
29/03:00am 21.7 20.3 12.3 55 5.3 SSW 11 13 6 7 1015.2 1014.7 0.0
29/02:30am 22.4 20.5 11.8 51 6.0 SSW 13 17 7 9 1015.1 1014.6 0.0
29/02:00am 21.9 20.2 11.3 51 5.9 SW 11 13 6 7 1015.2 1014.7 0.0
29/01:30am 22.7 21.3 10.8 47 6.6 SW 9 13 5 7 1015.3 1014.8 0.0
29/01:00am 23.5 21.6 10.6 44 7.2 W 11 15 6 8 1015.5 1015.0 0.0
29/12:30am 25.1 22.7 10.2 39 8.3 SSW 13 19 7 10 1015.7 1015.2 0.0
29/12:00am 26.2 23.2 11.9 41 8.2 W 19 24 10 13 1015.4 1014.9 0.0
 
Date/Time
WST
Temp
°C
App
Temp
°C
Dew
Point
Rel
Hum
%
Delta-T
°C
Wind Press
QNH
hPa
Press
MSL
hPa
Rain
since 9 am
mm
Dir
 
Spd
km/h
Gust
km/h
Spd
kts
Gust
kts
28/11:30pm 27.1 23.4 11.6 38 8.9 W 22 32 12 17 1015.4 1014.9 0.0
28/11:00pm 26.3 23.5 11.2 38 8.6 W 17 24 9 13 1015.3 1014.8 0.0
28/10:30pm 22.0 18.8 7.0 38 7.7 NW 13 13 7 7 1015.4 1014.9 0.0
28/10:00pm 23.5 21.7 8.0 37 8.2 NNW 7 7 4 4 1015.4 1014.9 0.0
28/09:30pm 25.0 23.6 8.9 36 8.8 WNW 6 7 3 4 1015.4 1014.9 0.0
28/09:00pm 25.3 24.8 7.9 33 9.3 CALM 0 0 0 0 1015.2 1014.7 0.0
28/08:30pm 26.1 25.7 8.1 32 9.7 CALM 0 0 0 0 1015.0 1014.5 0.0
28/08:00pm 26.6 24.7 7.6 30 10.2 WSW 7 9 4 5 1014.8 1014.3 0.0
28/07:30pm 27.6 25.8 8.0 29 10.6 WSW 7 9 4 5 1014.4 1013.9 0.0
28/07:00pm 27.3 24.2 7.2 28 10.7 WSW 13 15 7 8 1014.0 1013.5 0.0
28/06:30pm 28.0 24.4 6.7 26 11.3 WSW 15 15 8 8 1013.4 1013.0 0.0
28/06:00pm 29.4 26.3 7.3 25 12.0 WSW 13 13 7 7 1013.0 1012.6 0.0
28/05:30pm 32.3 29.0 7.9 22 13.5 W 15 20 8 11 1012.6 1012.2 0.0
28/05:00pm 33.7 30.5 6.9 19 14.8 W 13 17 7 9 1012.3 1011.9 0.0
28/04:30pm 34.4 30.2 7.5 19 15.0 WNW 19 26 10 14 1012.0 1011.5 0.0
28/04:00pm 34.8 31.8 6.2 17 15.7 NW 11 17 6 9 1011.7 1011.2 0.0
28/03:30pm 35.6 32.8 6.8 17 16.0 SSW 11 19 6 10 1011.7 1011.2 0.0
28/03:00pm 35.7 31.8 6.9 17 16.0 WSW 17 26 9 14 1011.8 1011.3 0.0
28/02:30pm 35.4 32.9 6.6 17 15.9 SW 9 19 5 10 1011.9 1011.4 0.0
28/02:00pm 35.6 31.1 6.8 17 16.0 W 20 28 11 15 1012.2 1011.8 0.0
28/01:30pm 35.0 31.7 6.3 17 15.7 W 13 20 7 11 1012.5 1012.1 0.0
28/01:00pm 34.9 32.9 7.1 18 15.4 S 7 17 4 9 1013.0 1012.6 0.0
28/12:30pm 34.7 31.7 6.1 17 15.6 WSW 11 24 6 13 1013.5 1013.1 0.0
28/12:00pm 34.5 32.2 7.5 19 15.1 W 9 17 5 9 1014.1 1013.6 0.0
28/11:30am 33.5 30.6 8.2 21 14.2 W 13 37 7 20 1014.6 1014.1 0.0
28/11:00am 33.2 30.8 8.6 22 13.9 WSW 11 19 6 10 1015.1 1014.6 0.0
28/10:30am 32.5 30.1 8.7 23 13.4 W 11 17 6 9 1015.6 1015.1 0.0
28/10:00am 30.2 27.9 9.1 27 11.8 W 11 19 6 10 1016.1 1015.6 0.0
28/09:30am 29.3 26.7 9.4 29 11.2 WNW 13 17 7 9 1016.4 1015.9 0.0
28/09:00am 28.1 26.0 9.9 32 10.2 WNW 11 17 6 9 1016.5 1016.0 0.0
28/08:30am 26.4 24.1 10.5 37 8.9 W 13 17 7 9 1016.5 1016.0 0.0
28/08:00am 25.5 23.5 12.7 45 7.4 W 15 19 8 10 1016.4 1015.9 0.0
28/07:30am 23.8 22.3 13.1 51 6.2 WNW 13 17 7 9 1016.2 1015.7 0.0
28/07:00am 22.3 21.0 13.6 58 5.1 WNW 13 19 7 10 1016.1 1015.6 0.0
28/06:30am 20.0 19.0 13.5 66 3.7 NW 11 13 6 7 1015.6 1015.1 0.0
28/06:00am 18.9 17.4 13.1 69 3.3 NW 13 17 7 9 1015.3 1014.8 0.0
28/05:30am 18.9 17.7 12.9 68 3.4 NNW 11 13 6 7 1015.0 1014.5 0.0
28/05:00am 18.9 16.8 12.4 66 3.6 NW 15 17 8 9 1014.6 1014.1 0.0
28/04:30am 20.0 18.8 12.7 63 4.1 WNW 11 13 6 7 1014.3 1013.8 0.0
28/04:00am 19.9 18.6 12.4 62 4.2 NW 11 15 6 8 1014.0 1013.5 0.0
28/03:30am 20.1 17.9 12.1 60 4.5 NW 15 19 8 10 1013.7 1013.3 0.0
28/03:00am 22.6 20.6 12.8 54 5.6 WNW 15 19 8 10 1013.9 1013.4 0.0
28/02:30am 23.1 21.1 12.7 52 6.0 WNW 15 20 8 11 1014.1 1013.6 0.0
28/02:00am 22.6 21.6 12.3 52 5.9 NW 9 13 5 7 1014.2 1013.7 0.0
28/01:30am 24.3 22.6 12.3 47 6.9 W 13 20 7 11 1014.0 1013.5 0.0
28/01:00am 25.1 22.1 12.7 46 7.2 WSW 20 28 11 15 1014.0 1013.5 0.0
28/12:30am 25.7 21.7 12.9 45 7.5 WSW 26 37 14 20 1014.0 1013.5 0.0
28/12:00am 26.1 22.3 12.5 42 7.9 WSW 24 33 13 18 1014.2 1013.7 0.0
 
Date/Time
WST
Temp
°C
App
Temp
°C
Dew
Point
Rel
Hum
%
Delta-T
°C
Wind Press
QNH
hPa
Press
MSL
hPa
Rain
since 9 am
mm
Dir
 
Spd
km/h
Gust
km/h
Spd
kts
Gust
kts
27/11:30pm 26.7 23.4 11.6 39 8.7 W 20 30 11 16 1014.5 1014.0 0.0
27/11:00pm 27.8 24.4 11.4 36 9.4 W 20 32 11 17 1014.5 1014.0 0.0
27/10:30pm 27.6 24.5 11.6 37 9.2 W 19 24 10 13 1014.5 1014.0 0.0
27/10:00pm 27.4 24.1 11.0 36 9.3 W 19 22 10 12 1014.6 1014.1 0.0
27/09:30pm 25.8 22.9 8.3 33 9.5 WSW 13 15 7 8 1014.7 1014.2 0.0
27/09:00pm 26.8 24.2 7.8 30 10.2 WSW 11 13 6 7 1014.6 1014.1 0.0
27/08:30pm 26.8 24.7 6.8 28 10.6 W 7 11 4 6 1014.3 1013.8 0.0
27/08:00pm 27.2 25.9 6.0 26 11.1 WNW 2 7 1 4 1014.1 1013.6 0.0
27/07:30pm 27.7 26.9 6.5 26 11.2 CALM 0 0 0 0 1013.9 1013.4 0.0
27/07:00pm 26.9 24.5 5.2 25 11.2 WSW 7 7 4 4 1013.4 1013.0 0.0
27/06:30pm 29.2 27.9 6.0 23 12.3 SE 2 7 1 4 1012.9 1012.5 0.0
27/06:00pm 29.9 27.8 6.5 23 12.5 ESE 7 9 4 5 1012.5 1012.1 0.0
27/05:30pm 32.5 30.3 5.1 18 14.6 NE 6 7 3 4 1012.2 1011.8 0.0
27/05:00pm 33.8 31.4 5.4 17 15.3 ENE 7 9 4 5 1011.9 1011.4 0.0
27/04:30pm 34.5 31.7 5.0 16 15.8 N 9 13 5 7 1011.8 1011.3 0.0
27/04:00pm 35.3 33.0 4.8 15 16.4 N 6 11 3 6 1011.6 1011.1 0.0
27/03:30pm 35.1 31.4 4.6 15 16.3 NNE 13 22 7 12 1011.6 1011.1 0.0
27/03:00pm 35.8 33.4 5.1 15 16.6 NW 7 11 4 6 1011.7 1011.2 0.0
27/02:30pm 35.6 33.1 5.0 15 16.5 NW 7 17 4 9 1011.9 1011.4 0.0
27/02:00pm 35.3 30.9 4.8 15 16.4 N 17 28 9 15 1012.0 1011.5 0.0

Other Formats:

Comma delimited format used in spreadsheet applications
http://www.bom.gov.au/fwo/IDW60801/IDW60801.94206.axf

JavaScript Object Notation format (JSON) in row-major order
http://www.bom.gov.au/fwo/IDW60801/IDW60801.94206.json